createdAt,value
2023-01-21T00:00:09.663Z,-0.31
2023-01-21T00:01:09.694Z,-0.31
2023-01-21T00:02:09.670Z,-0.31
2023-01-21T00:03:09.644Z,-0.33
2023-01-21T00:04:09.612Z,-0.30
2023-01-21T00:05:09.650Z,-0.30
2023-01-21T00:06:09.613Z,-0.33
2023-01-21T00:07:09.577Z,-0.33
2023-01-21T00:08:09.578Z,-0.34
2023-01-21T00:09:09.549Z,-0.33
2023-01-21T00:10:09.544Z,-0.37
2023-01-21T00:11:09.549Z,-0.37
2023-01-21T00:12:09.520Z,-0.39
2023-01-21T00:13:09.525Z,-0.36
2023-01-21T00:14:09.495Z,-0.36
2023-01-21T00:15:09.473Z,-0.36
2023-01-21T00:16:09.543Z,-0.37
2023-01-21T00:17:09.443Z,-0.37
2023-01-21T00:18:09.444Z,-0.36
2023-01-21T00:19:09.427Z,-0.36
2023-01-21T00:20:09.403Z,-0.37
2023-01-21T00:21:09.443Z,-0.37
2023-01-21T00:22:09.376Z,-0.39
2023-01-21T00:23:09.374Z,-0.41
2023-01-21T00:24:09.353Z,-0.39
2023-01-21T00:25:09.345Z,-0.41
2023-01-21T00:26:09.380Z,-0.37
2023-01-21T00:27:09.313Z,-0.37
2023-01-21T00:28:09.315Z,-0.39
2023-01-21T00:29:09.326Z,-0.41
2023-01-21T00:30:09.265Z,-0.41
2023-01-21T00:31:09.416Z,-0.44
2023-01-21T00:32:09.250Z,-0.39
2023-01-21T00:33:09.248Z,-0.42
2023-01-21T00:34:09.222Z,-0.39
2023-01-21T00:35:09.218Z,-0.41
2023-01-21T00:36:09.222Z,-0.47
2023-01-21T00:37:09.181Z,-0.44
2023-01-21T00:38:09.163Z,-0.48
2023-01-21T00:39:09.158Z,-0.50
2023-01-21T00:40:09.145Z,-0.50
2023-01-21T00:41:09.225Z,-0.52
2023-01-21T00:42:09.114Z,-0.52
2023-01-21T00:43:09.093Z,-0.52
2023-01-21T00:44:09.083Z,-0.54
2023-01-21T00:45:09.076Z,-0.52
2023-01-21T00:46:09.089Z,-0.55
2023-01-21T00:47:09.055Z,-0.57
2023-01-21T00:48:09.031Z,-0.52
2023-01-21T00:49:09.043Z,-0.57
2023-01-21T00:50:09.015Z,-0.55
2023-01-21T00:51:09.048Z,-0.59
2023-01-21T00:52:08.979Z,-0.62
2023-01-21T00:53:08.963Z,-0.63
2023-01-21T00:54:08.953Z,-0.62
2023-01-21T00:55:08.947Z,-0.60
2023-01-21T00:56:08.942Z,-0.60
2023-01-21T00:57:08.920Z,-0.62
2023-01-21T00:58:08.903Z,-0.60
2023-01-21T00:59:08.903Z,-0.60
2023-01-21T01:00:08.874Z,-0.59
2023-01-21T01:01:08.959Z,-0.59
2023-01-21T01:02:09.015Z,-0.60
2023-01-21T01:03:08.840Z,-0.55
2023-01-21T01:04:08.821Z,-0.59
2023-01-21T01:05:08.812Z,-0.60
2023-01-21T01:06:08.826Z,-0.60
2023-01-21T01:07:08.810Z,-0.60
2023-01-21T01:08:08.775Z,-0.60
2023-01-21T01:09:08.763Z,-0.60
2023-01-21T01:10:08.741Z,-0.63
2023-01-21T01:11:08.779Z,-0.63
2023-01-21T01:12:08.721Z,-0.62
2023-01-21T01:13:08.716Z,-0.62
2023-01-21T01:14:08.690Z,-0.65
2023-01-21T01:15:08.698Z,-0.62
2023-01-21T01:16:08.701Z,-0.63
2023-01-21T01:17:08.663Z,-0.65
2023-01-21T01:18:08.645Z,-0.65
2023-01-21T01:19:08.632Z,-0.63
2023-01-21T01:20:08.612Z,-0.62
2023-01-21T01:21:08.621Z,-0.62
2023-01-21T01:22:08.592Z,-0.63
2023-01-21T01:23:08.573Z,-0.63
2023-01-21T01:24:08.559Z,-0.63
2023-01-21T01:25:08.554Z,-0.65
2023-01-21T01:26:08.564Z,-0.68
2023-01-21T01:27:08.541Z,-0.65
2023-01-21T01:28:08.522Z,-0.66
2023-01-21T01:29:08.501Z,-0.68
2023-01-21T01:30:08.472Z,-0.68
2023-01-21T01:31:08.630Z,-0.68
2023-01-21T01:32:08.460Z,-0.69
2023-01-21T01:33:08.450Z,-0.68
2023-01-21T01:34:08.431Z,-0.70
2023-01-21T01:35:08.421Z,-0.70
2023-01-21T01:36:08.431Z,-0.69
2023-01-21T01:37:08.411Z,-0.69
2023-01-21T01:38:08.380Z,-0.68
2023-01-21T01:39:08.376Z,-0.69
2023-01-21T01:40:08.352Z,-0.72
2023-01-21T01:41:08.352Z,-0.72
2023-01-21T01:42:08.331Z,-0.72
2023-01-21T01:43:08.311Z,-0.70
2023-01-21T01:44:08.301Z,-0.70
2023-01-21T01:45:08.291Z,-0.66
2023-01-21T01:46:08.333Z,-0.69
2023-01-21T01:47:08.262Z,-0.73
2023-01-21T01:48:08.243Z,-0.75
2023-01-21T01:49:08.239Z,-0.77
2023-01-21T01:50:08.221Z,-0.77
2023-01-21T01:51:08.233Z,-0.77
2023-01-21T01:52:08.191Z,-0.78
2023-01-21T01:53:08.211Z,-0.75
2023-01-21T01:54:08.171Z,-0.77
2023-01-21T01:55:08.163Z,-0.70
2023-01-21T01:56:08.176Z,-0.73
2023-01-21T01:57:08.142Z,-0.73
2023-01-21T01:58:08.123Z,-0.70
2023-01-21T01:59:08.111Z,-0.69
2023-01-21T02:00:08.093Z,-0.72
2023-01-21T02:01:08.090Z,-0.70
2023-01-21T02:02:08.081Z,-0.72
2023-01-21T02:03:08.071Z,-0.70
2023-01-21T02:04:08.040Z,-0.70
2023-01-21T02:05:08.053Z,-0.70
2023-01-21T02:06:08.009Z,-0.70
2023-01-21T02:07:08.025Z,-0.73
2023-01-21T02:08:07.991Z,-0.72
2023-01-21T02:09:07.977Z,-0.72
2023-01-21T02:10:07.965Z,-0.77
2023-01-21T02:11:07.955Z,-0.81
2023-01-21T02:12:07.965Z,-0.83
2023-01-21T02:13:07.943Z,-0.81
2023-01-21T02:14:07.911Z,-0.80
2023-01-21T02:15:07.903Z,-0.81
2023-01-21T02:16:07.914Z,-0.83
2023-01-21T02:17:07.899Z,-0.81
2023-01-21T02:18:07.864Z,-0.83
2023-01-21T02:19:07.846Z,-0.81
2023-01-21T02:20:07.840Z,-0.84
2023-01-21T02:21:07.827Z,-0.86
2023-01-21T02:22:07.830Z,-0.91
2023-01-21T02:23:07.791Z,-0.89
2023-01-21T02:24:07.790Z,-0.91
2023-01-21T02:25:07.776Z,-0.92
2023-01-21T02:26:07.753Z,-0.92
2023-01-21T02:27:07.759Z,-0.92
2023-01-21T02:28:07.731Z,-0.91
2023-01-21T02:29:07.724Z,-0.91
2023-01-21T02:30:07.710Z,-0.89
2023-01-21T02:31:07.821Z,-0.87
2023-01-21T02:32:07.697Z,-0.91
2023-01-21T02:33:07.660Z,-0.91
2023-01-21T02:34:07.665Z,-0.87
2023-01-21T02:35:20.551Z,-0.91
2023-01-21T02:36:07.649Z,-0.92
2023-01-21T02:37:09.514Z,-0.91
2023-01-21T02:38:07.600Z,-0.92
2023-01-21T02:39:07.600Z,-0.92
2023-01-21T02:40:07.582Z,-0.92
2023-01-21T02:41:07.582Z,-0.91
2023-01-21T02:42:07.578Z,-0.89
2023-01-21T02:43:07.561Z,-0.91
2023-01-21T02:44:07.522Z,-0.91
2023-01-21T02:45:07.558Z,-0.94
2023-01-21T02:46:07.523Z,-0.92
2023-01-21T02:47:07.512Z,-0.92
2023-01-21T02:48:07.484Z,-0.94
2023-01-21T02:49:07.465Z,-0.95
2023-01-21T02:50:07.494Z,-0.94
2023-01-21T02:51:07.471Z,-0.97
2023-01-21T02:52:07.453Z,-0.99
2023-01-21T02:53:07.405Z,-0.99
2023-01-21T02:54:07.443Z,-0.95
2023-01-21T02:55:07.380Z,-1.00
2023-01-21T02:56:07.371Z,-0.97
2023-01-21T02:57:07.369Z,-0.99
2023-01-21T02:58:07.356Z,-0.99
2023-01-21T02:59:07.331Z,-0.94
2023-01-21T03:00:07.337Z,-0.97
2023-01-21T03:01:07.392Z,-0.99
2023-01-21T03:02:07.404Z,-0.99
2023-01-21T03:03:07.284Z,-0.99
2023-01-21T03:04:07.280Z,-0.97
2023-01-21T03:05:07.248Z,-1.00
2023-01-21T03:06:07.249Z,-1.02
2023-01-21T03:07:07.248Z,-1.03
2023-01-21T03:08:07.232Z,-1.03
2023-01-21T03:09:07.201Z,-1.02
2023-01-21T03:10:07.189Z,-1.02
2023-01-21T03:11:07.203Z,-1.03
2023-01-21T03:12:07.193Z,-1.00
2023-01-21T03:13:07.185Z,-1.02
2023-01-21T03:14:07.137Z,-1.03
2023-01-21T03:15:07.161Z,-1.05
2023-01-21T03:16:07.138Z,-1.10
2023-01-21T03:17:07.180Z,-1.09
2023-01-21T03:18:07.109Z,-1.15
2023-01-21T03:19:07.097Z,-1.17
2023-01-21T03:20:07.072Z,-1.18
2023-01-21T03:21:07.200Z,-1.18
2023-01-21T03:22:07.036Z,-1.17
2023-01-21T03:23:07.044Z,-1.17
2023-01-21T03:24:06.999Z,-1.18
2023-01-21T03:25:07.046Z,-1.21
2023-01-21T03:26:06.980Z,-1.23
2023-01-21T03:27:06.981Z,-1.21
2023-01-21T03:28:06.980Z,-1.23
2023-01-21T03:29:06.958Z,-1.23
2023-01-21T03:30:06.994Z,-1.20
2023-01-21T03:31:07.035Z,-1.15
2023-01-21T03:32:06.927Z,-1.20
2023-01-21T03:33:06.919Z,-1.15
2023-01-21T03:34:06.877Z,-1.13
2023-01-21T03:35:06.874Z,-1.18
2023-01-21T03:36:06.896Z,-1.17
2023-01-21T03:37:06.838Z,-1.12
2023-01-21T03:38:06.837Z,-1.12
2023-01-21T03:39:06.806Z,-1.15
2023-01-21T03:40:06.811Z,-1.12
2023-01-21T03:41:06.779Z,-1.09
2023-01-21T03:42:06.777Z,-1.12
2023-01-21T03:43:06.806Z,-1.10
2023-01-21T03:44:06.752Z,-1.12
2023-01-21T03:45:06.741Z,-1.15
2023-01-21T03:46:06.738Z,-1.13
2023-01-21T03:47:06.736Z,-1.17
2023-01-21T03:48:06.743Z,-1.13
2023-01-21T03:49:06.677Z,-1.12
2023-01-21T03:50:06.692Z,-1.10
2023-01-21T03:51:06.742Z,-1.10
2023-01-21T03:52:06.646Z,-1.12
2023-01-21T03:53:06.684Z,-1.12
2023-01-21T03:54:06.635Z,-1.17
2023-01-21T03:55:06.601Z,-1.12
2023-01-21T03:56:06.588Z,-1.13
2023-01-21T03:57:06.590Z,-1.12
2023-01-21T03:58:06.580Z,-1.10
2023-01-21T03:59:06.548Z,-1.12
2023-01-21T04:00:06.549Z,-1.13
2023-01-21T04:01:06.550Z,-1.15
2023-01-21T04:02:06.572Z,-1.15
2023-01-21T04:03:06.516Z,-1.17
2023-01-21T04:04:06.494Z,-1.18
2023-01-21T04:05:06.500Z,-1.18
2023-01-21T04:06:06.474Z,-1.20
2023-01-21T04:07:06.449Z,-1.20
2023-01-21T04:08:06.506Z,-1.21
2023-01-21T04:09:06.446Z,-1.21
2023-01-21T04:10:06.451Z,-1.20
2023-01-21T04:11:06.408Z,-1.21
2023-01-21T04:12:06.390Z,-1.23
2023-01-21T04:13:06.414Z,-1.20
2023-01-21T04:14:06.377Z,-1.23
2023-01-21T04:15:06.357Z,-1.24
2023-01-21T04:16:06.430Z,-1.21
2023-01-21T04:17:06.329Z,-1.21
2023-01-21T04:18:06.343Z,-1.21
2023-01-21T04:19:06.301Z,-1.20
2023-01-21T04:20:06.287Z,-1.20
2023-01-21T04:21:06.257Z,-1.18
2023-01-21T04:22:06.262Z,-1.18
2023-01-21T04:23:06.265Z,-1.18
2023-01-21T04:24:06.227Z,-1.20
2023-01-21T04:25:06.217Z,-1.23
2023-01-21T04:26:06.231Z,-1.23
2023-01-21T04:27:06.195Z,-1.21
2023-01-21T04:28:06.206Z,-1.20
2023-01-21T04:29:06.168Z,-1.17
2023-01-21T04:30:06.167Z,-1.20
2023-01-21T04:31:06.216Z,-1.15
2023-01-21T04:32:06.149Z,-1.18
2023-01-21T04:33:06.134Z,-1.18
2023-01-21T04:34:06.166Z,-1.18
2023-01-21T04:35:06.095Z,-1.20
2023-01-21T04:36:06.099Z,-1.18
2023-01-21T04:37:06.074Z,-1.17
2023-01-21T04:38:06.077Z,-1.20
2023-01-21T04:39:06.042Z,-1.21
2023-01-21T04:40:06.080Z,-1.21
2023-01-21T04:41:06.009Z,-1.21
2023-01-21T04:42:06.018Z,-1.24
2023-01-21T04:43:06.009Z,-1.24
2023-01-21T04:44:06.002Z,-1.24
2023-01-21T04:45:05.967Z,-1.25
2023-01-21T04:46:06.006Z,-1.24
2023-01-21T04:47:05.938Z,-1.24
2023-01-21T04:48:05.934Z,-1.24
2023-01-21T04:49:05.936Z,-1.24
2023-01-21T04:50:05.905Z,-1.27
2023-01-21T04:51:05.975Z,-1.27
2023-01-21T04:52:05.898Z,-1.27
2023-01-21T04:53:05.920Z,-1.25
2023-01-21T04:54:05.999Z,-1.25
2023-01-21T04:55:05.834Z,-1.23
2023-01-21T04:56:05.841Z,-1.25
2023-01-21T04:57:05.810Z,-1.27
2023-01-21T04:58:05.811Z,-1.25
2023-01-21T04:59:05.827Z,-1.23
2023-01-21T05:00:05.785Z,-1.25
2023-01-21T05:01:05.807Z,-1.25
2023-01-21T05:02:05.792Z,-1.30
2023-01-21T05:03:05.728Z,-1.30
2023-01-21T05:04:05.756Z,-1.30
2023-01-21T05:05:05.732Z,-1.28
2023-01-21T05:06:05.702Z,-1.33
2023-01-21T05:07:05.681Z,-1.30
2023-01-21T05:08:05.680Z,-1.31
2023-01-21T05:09:05.707Z,-1.31
2023-01-21T05:10:05.663Z,-1.31
2023-01-21T05:11:05.626Z,-1.30
2023-01-21T05:12:05.627Z,-1.30
2023-01-21T05:13:05.625Z,-1.30
2023-01-21T05:14:05.626Z,-1.31
2023-01-21T05:15:05.591Z,-1.33
2023-01-21T05:16:05.631Z,-1.36
2023-01-21T05:17:05.566Z,-1.36
2023-01-21T05:18:05.548Z,-1.38
2023-01-21T05:19:05.561Z,-1.39
2023-01-21T05:20:05.567Z,-1.41
2023-01-21T05:21:05.517Z,-1.39
2023-01-21T05:22:05.495Z,-1.39
2023-01-21T05:23:05.480Z,-1.41
2023-01-21T05:24:05.476Z,-1.41
2023-01-21T05:25:05.458Z,-1.38
2023-01-21T05:26:05.482Z,-1.38
2023-01-21T05:27:05.435Z,-1.36
2023-01-21T05:28:05.432Z,-1.41
2023-01-21T05:29:05.428Z,-1.39
2023-01-21T05:30:05.401Z,-1.36
2023-01-21T05:31:05.467Z,-1.38
2023-01-21T05:32:05.396Z,-1.41
2023-01-21T05:33:05.355Z,-1.41
2023-01-21T05:34:05.375Z,-1.41
2023-01-21T05:35:05.327Z,-1.43
2023-01-21T05:36:05.344Z,-1.42
2023-01-21T05:37:05.308Z,-1.45
2023-01-21T05:38:05.291Z,-1.43
2023-01-21T05:39:05.318Z,-1.46
2023-01-21T05:40:05.283Z,-1.48
2023-01-21T05:41:05.257Z,-1.49
2023-01-21T05:42:05.246Z,-1.49
2023-01-21T05:43:05.241Z,-1.51
2023-01-21T05:44:05.248Z,-1.59
2023-01-21T05:45:05.196Z,-1.54
2023-01-21T05:46:05.271Z,-1.56
2023-01-21T05:47:05.179Z,-1.56
2023-01-21T05:48:05.162Z,-1.57
2023-01-21T05:49:05.181Z,-1.57
2023-01-21T05:50:05.144Z,-1.54
2023-01-21T05:51:05.185Z,-1.54
2023-01-21T05:52:05.118Z,-1.54
2023-01-21T05:53:05.105Z,-1.56
2023-01-21T05:54:05.132Z,-1.51
2023-01-21T05:55:05.075Z,-1.48
2023-01-21T05:56:05.064Z,-1.49
2023-01-21T05:57:05.054Z,-1.48
2023-01-21T05:58:05.044Z,-1.51
2023-01-21T05:59:05.053Z,-1.53
2023-01-21T06:00:05.015Z,-1.53
2023-01-21T06:01:04.996Z,-1.51
2023-01-21T06:02:04.999Z,-1.46
2023-01-21T06:03:04.994Z,-1.46
2023-01-21T06:04:05.006Z,-1.46
2023-01-21T06:05:04.944Z,-1.48
2023-01-21T06:06:04.944Z,-1.48
2023-01-21T06:07:04.923Z,-1.49
2023-01-21T06:08:04.936Z,-1.46
2023-01-21T06:09:05.032Z,-1.45
2023-01-21T06:10:04.967Z,-1.48
2023-01-21T06:11:04.954Z,-1.49
2023-01-21T06:12:04.935Z,-1.46
2023-01-21T06:13:04.846Z,-1.48
2023-01-21T06:14:04.916Z,-1.46
2023-01-21T06:15:04.833Z,-1.49
2023-01-21T06:16:04.891Z,-1.49
2023-01-21T06:17:04.828Z,-1.49
2023-01-21T06:18:04.793Z,-1.51
2023-01-21T06:19:04.794Z,-1.51
2023-01-21T06:20:04.769Z,-1.48
2023-01-21T06:21:04.756Z,-1.45
2023-01-21T06:22:04.756Z,-1.48
2023-01-21T06:23:04.733Z,-1.42
2023-01-21T06:24:04.756Z,-1.49
2023-01-21T06:25:04.743Z,-1.46
2023-01-21T06:26:04.713Z,-1.46
2023-01-21T06:27:04.678Z,-1.46
2023-01-21T06:28:04.675Z,-1.46
2023-01-21T06:29:04.689Z,-1.46
2023-01-21T06:30:04.645Z,-1.48
2023-01-21T06:31:04.738Z,-1.49
2023-01-21T06:32:04.717Z,-1.48
2023-01-21T06:33:04.616Z,-1.51
2023-01-21T06:34:04.595Z,-1.51
2023-01-21T06:35:04.605Z,-1.53
2023-01-21T06:36:04.565Z,-1.54
2023-01-21T06:37:04.572Z,-1.49
2023-01-21T06:38:04.531Z,-1.48
2023-01-21T06:39:04.552Z,-1.49
2023-01-21T06:40:04.535Z,-1.51
2023-01-21T06:41:04.509Z,-1.51
2023-01-21T06:42:04.527Z,-1.53
2023-01-21T06:43:04.475Z,-1.54
2023-01-21T06:44:04.523Z,-1.54
2023-01-21T06:45:04.468Z,-1.54
2023-01-21T06:46:04.505Z,-1.48
2023-01-21T06:47:04.499Z,-1.48
2023-01-21T06:48:04.426Z,-1.45
2023-01-21T06:49:04.415Z,-1.45
2023-01-21T06:50:04.391Z,-1.48
2023-01-21T06:51:04.416Z,-1.45
2023-01-21T06:52:04.369Z,-1.45
2023-01-21T06:53:04.355Z,-1.48
2023-01-21T06:54:04.351Z,-1.48
2023-01-21T06:55:04.332Z,-1.48
2023-01-21T06:56:04.314Z,-1.49
2023-01-21T06:57:04.333Z,-1.45
2023-01-21T06:58:04.289Z,-1.48
2023-01-21T06:59:04.305Z,-1.48
2023-01-21T07:00:04.264Z,-1.48
2023-01-21T07:01:04.245Z,-1.51
2023-01-21T07:02:04.244Z,-1.51
2023-01-21T07:03:04.273Z,-1.51
2023-01-21T07:04:04.267Z,-1.54
2023-01-21T07:05:04.262Z,-1.57
2023-01-21T07:06:04.184Z,-1.59
2023-01-21T07:07:04.172Z,-1.60
2023-01-21T07:08:04.152Z,-1.60
2023-01-21T07:09:04.186Z,-1.62
2023-01-21T07:10:04.128Z,-1.57
2023-01-21T07:11:04.139Z,-1.59
2023-01-21T07:12:04.101Z,-1.62
2023-01-21T07:13:04.111Z,-1.62
2023-01-21T07:14:04.105Z,-1.63
2023-01-21T07:15:04.073Z,-1.64
2023-01-21T07:16:06.806Z,-1.64
2023-01-21T07:17:04.052Z,-1.64
2023-01-21T07:18:04.072Z,-1.63
2023-01-21T07:19:04.052Z,-1.67
2023-01-21T07:20:04.031Z,-1.67
2023-01-21T07:21:04.022Z,-1.63
2023-01-21T07:22:03.979Z,-1.62
2023-01-21T07:23:03.984Z,-1.63
2023-01-21T07:24:03.954Z,-1.64
2023-01-21T07:25:03.961Z,-1.66
2023-01-21T07:26:03.927Z,-1.66
2023-01-21T07:27:03.925Z,-1.69
2023-01-21T07:28:03.923Z,-1.66
2023-01-21T07:29:03.916Z,-1.67
2023-01-21T07:30:03.960Z,-1.69
2023-01-21T07:31:03.957Z,-1.66
2023-01-21T07:32:03.922Z,-1.67
2023-01-21T07:33:03.863Z,-1.66
2023-01-21T07:34:03.840Z,-1.64
2023-01-21T07:35:03.839Z,-1.63
2023-01-21T07:36:03.804Z,-1.63
2023-01-21T07:37:03.800Z,-1.64
2023-01-21T07:38:03.772Z,-1.66
2023-01-21T07:39:03.784Z,-1.70
2023-01-21T07:40:03.770Z,-1.69
2023-01-21T07:41:03.761Z,-1.70
2023-01-21T07:42:03.738Z,-1.74
2023-01-21T07:43:03.746Z,-1.70
2023-01-21T07:44:03.713Z,-1.70
2023-01-21T07:45:03.722Z,-1.72
2023-01-21T07:46:03.687Z,-1.70
2023-01-21T07:47:03.677Z,-1.72
2023-01-21T07:48:03.680Z,-1.69
2023-01-21T07:49:03.655Z,-1.72
2023-01-21T07:50:03.639Z,-1.69
2023-01-21T07:51:03.680Z,-1.74
2023-01-21T07:52:03.613Z,-1.74
2023-01-21T07:53:03.599Z,-1.70
2023-01-21T07:54:03.585Z,-1.74
2023-01-21T07:55:03.591Z,-1.74
2023-01-21T07:56:03.569Z,-1.69
2023-01-21T07:57:03.575Z,-1.67
2023-01-21T07:58:03.539Z,-1.72
2023-01-21T07:59:03.510Z,-1.64
2023-01-21T08:00:03.541Z,-1.66
2023-01-21T08:01:03.505Z,-1.64
2023-01-21T08:02:03.673Z,-1.63
2023-01-21T08:03:03.471Z,-1.62
2023-01-21T08:04:03.447Z,-1.60
2023-01-21T08:05:03.475Z,-1.60
2023-01-21T08:06:03.432Z,-1.57
2023-01-21T08:07:03.410Z,-1.57
2023-01-21T08:08:03.401Z,-1.57
2023-01-21T08:09:03.391Z,-1.57
2023-01-21T08:10:03.399Z,-1.57
2023-01-21T08:11:03.368Z,-1.57
2023-01-21T08:12:03.347Z,-1.56
2023-01-21T08:13:03.341Z,-1.56
2023-01-21T08:14:03.320Z,-1.54
2023-01-21T08:15:03.369Z,-1.51
2023-01-21T08:16:03.343Z,-1.48
2023-01-21T08:17:03.300Z,-1.48
2023-01-21T08:18:03.302Z,-1.45
2023-01-21T08:19:03.273Z,-1.45
2023-01-21T08:20:03.280Z,-1.43
2023-01-21T08:21:03.280Z,-1.43
2023-01-21T08:22:03.244Z,-1.45
2023-01-21T08:23:03.215Z,-1.45
2023-01-21T08:24:03.215Z,-1.41
2023-01-21T08:25:03.219Z,-1.42
2023-01-21T08:26:03.220Z,-1.39
2023-01-21T08:27:03.165Z,-1.36
2023-01-21T08:28:03.146Z,-1.35
2023-01-21T08:29:03.149Z,-1.36
2023-01-21T08:30:03.137Z,-1.33
2023-01-21T08:31:03.205Z,-1.31
2023-01-21T08:32:03.118Z,-1.30
2023-01-21T08:33:04.903Z,-1.30
2023-01-21T08:34:03.081Z,-1.31
2023-01-21T08:35:03.077Z,-1.30
2023-01-21T08:37:15.580Z,-1.30
2023-01-21T08:38:12.860Z,-1.30
2023-01-21T08:39:12.852Z,-1.27
2023-01-21T08:40:12.824Z,-1.25
2023-01-21T08:41:12.821Z,-1.21
2023-01-21T08:42:12.802Z,-1.21
2023-01-21T08:43:12.785Z,-1.18
2023-01-21T08:44:12.780Z,-1.12
2023-01-21T08:45:15.164Z,-1.12
2023-01-21T08:46:12.793Z,-1.12
2023-01-21T08:47:12.734Z,-1.06
2023-01-21T08:48:12.738Z,-1.02
2023-01-21T08:49:12.722Z,-1.00
2023-01-21T08:50:12.702Z,-0.95
2023-01-21T08:51:12.804Z,-0.95
2023-01-21T08:52:12.681Z,-0.87
2023-01-21T08:53:12.650Z,-0.86
2023-01-21T08:54:12.651Z,-0.78
2023-01-21T08:55:12.661Z,-0.78
2023-01-21T08:56:12.639Z,-0.77
2023-01-21T08:57:12.600Z,-0.77
2023-01-21T08:58:12.611Z,-0.75
2023-01-21T08:59:12.591Z,-0.72
2023-01-21T09:00:12.565Z,-0.72
2023-01-21T09:01:12.657Z,-0.68
2023-01-21T09:02:12.657Z,-0.69
2023-01-21T09:03:12.531Z,-0.63
2023-01-21T09:04:12.521Z,-0.66
2023-01-21T09:05:12.523Z,-0.66
2023-01-21T09:06:12.510Z,-0.68
2023-01-21T09:07:12.468Z,-0.69
2023-01-21T09:08:12.467Z,-0.63
2023-01-21T09:09:12.448Z,-0.55
2023-01-21T09:10:12.454Z,-0.51
2023-01-21T09:11:12.430Z,-0.50
2023-01-21T09:12:12.401Z,-0.47
2023-01-21T09:13:12.382Z,-0.47
2023-01-21T09:14:12.395Z,-0.51
2023-01-21T09:15:12.369Z,-0.52
2023-01-21T09:16:12.428Z,-0.50
2023-01-21T09:17:12.340Z,-0.55
2023-01-21T09:18:12.318Z,-0.52
2023-01-21T09:19:12.314Z,-0.50
2023-01-21T09:20:12.299Z,-0.51
2023-01-21T09:21:12.320Z,-0.52
2023-01-21T09:22:12.275Z,-0.52
2023-01-21T09:23:12.283Z,-0.51
2023-01-21T09:24:12.248Z,-0.44
2023-01-21T09:25:12.260Z,-0.37
2023-01-21T09:26:12.246Z,-0.39
2023-01-21T09:27:12.212Z,-0.36
2023-01-21T09:28:12.195Z,-0.39
2023-01-21T09:29:12.185Z,-0.41
2023-01-21T09:30:12.170Z,-0.45
2023-01-21T09:31:12.201Z,-0.41
2023-01-21T09:32:12.151Z,-0.34
2023-01-21T09:33:12.133Z,-0.31
2023-01-21T09:34:12.122Z,-0.23
2023-01-21T09:35:12.114Z,-0.19
2023-01-21T09:36:12.122Z,-0.19
2023-01-21T09:37:12.067Z,-0.18
2023-01-21T09:38:12.068Z,-0.13
2023-01-21T09:39:12.058Z,-0.12
2023-01-21T09:40:12.057Z,-0.08
2023-01-21T09:41:12.051Z,-0.06
2023-01-21T09:42:12.029Z,-0.05
2023-01-21T09:43:12.021Z,0.03
2023-01-21T09:44:11.993Z,0.06
2023-01-21T09:45:11.976Z,0.09
2023-01-21T09:46:12.065Z,0.06
2023-01-21T09:47:11.992Z,0.13
2023-01-21T09:48:11.930Z,0.09
2023-01-21T09:49:11.937Z,0.07
2023-01-21T09:50:11.941Z,0.05
2023-01-21T09:51:11.915Z,0.05
2023-01-21T09:52:11.883Z,0.09
2023-01-21T09:53:11.864Z,0.09
2023-01-21T09:54:11.848Z,0.10
2023-01-21T09:55:11.861Z,0.10
2023-01-21T09:56:11.849Z,0.10
2023-01-21T09:57:11.837Z,0.06
2023-01-21T09:58:11.818Z,0.09
2023-01-21T09:59:11.812Z,0.16
2023-01-21T10:00:11.785Z,0.15
2023-01-21T10:01:11.800Z,0.16
2023-01-21T10:02:11.749Z,0.18
2023-01-21T10:03:11.732Z,0.20
2023-01-21T10:04:11.767Z,0.23
2023-01-21T10:05:11.730Z,0.24
2023-01-21T10:06:11.720Z,0.25
2023-01-21T10:07:11.681Z,0.25
2023-01-21T10:08:11.675Z,0.31
2023-01-21T10:09:11.648Z,0.31
2023-01-21T10:10:11.697Z,0.33
2023-01-21T10:11:11.647Z,0.34
2023-01-21T10:12:11.646Z,0.38
2023-01-21T10:13:11.610Z,0.41
2023-01-21T10:14:11.609Z,0.43
2023-01-21T10:15:11.571Z,0.45
2023-01-21T10:16:11.591Z,0.46
2023-01-21T10:17:11.564Z,0.46
2023-01-21T10:18:11.545Z,0.48
2023-01-21T10:19:11.519Z,0.52
2023-01-21T10:20:11.506Z,0.48
2023-01-21T10:21:11.506Z,0.46
2023-01-21T10:22:11.516Z,0.45
2023-01-21T10:23:11.479Z,0.48
2023-01-21T10:24:11.457Z,0.48
2023-01-21T10:25:11.456Z,0.46
2023-01-21T10:26:11.439Z,0.52
2023-01-21T10:27:11.427Z,0.52
2023-01-21T10:28:11.418Z,0.53
2023-01-21T10:29:11.394Z,0.52
2023-01-21T10:30:11.379Z,0.53
2023-01-21T10:31:11.404Z,0.58
2023-01-21T10:32:11.388Z,0.60
2023-01-21T10:33:11.337Z,0.62
2023-01-21T10:34:11.340Z,0.70
2023-01-21T10:35:11.308Z,0.72
2023-01-21T10:36:11.302Z,0.72
2023-01-21T10:37:11.317Z,0.72
2023-01-21T10:38:11.270Z,0.71
2023-01-21T10:39:11.275Z,0.75
2023-01-21T10:40:11.269Z,0.76
2023-01-21T10:41:11.234Z,0.76
2023-01-21T10:42:11.241Z,0.75
2023-01-21T10:43:11.216Z,0.78
2023-01-21T10:44:11.191Z,0.79
2023-01-21T10:45:11.168Z,0.82
2023-01-21T10:46:11.252Z,0.83
2023-01-21T10:47:11.164Z,0.86
2023-01-21T10:48:11.157Z,0.85
2023-01-21T10:49:11.136Z,0.85
2023-01-21T10:50:11.128Z,0.89
2023-01-21T10:51:11.225Z,0.85
2023-01-21T10:52:11.118Z,0.86
2023-01-21T10:53:11.076Z,0.86
2023-01-21T10:54:11.065Z,0.82
2023-01-21T10:55:11.061Z,0.80
2023-01-21T10:56:11.077Z,0.89
2023-01-21T10:57:11.039Z,0.97
2023-01-21T10:58:11.028Z,0.98
2023-01-21T10:59:10.994Z,1.00
2023-01-21T11:00:11.006Z,1.01
2023-01-21T11:01:10.996Z,1.03
2023-01-21T11:02:10.997Z,1.04
2023-01-21T11:03:10.937Z,1.03
2023-01-21T11:04:10.928Z,1.04
2023-01-21T11:05:10.909Z,1.10
2023-01-21T11:06:10.930Z,1.06
2023-01-21T11:07:10.899Z,1.04
2023-01-21T11:08:10.888Z,0.98
2023-01-21T11:09:10.942Z,0.98
2023-01-21T11:10:10.850Z,1.01
2023-01-21T11:11:10.833Z,1.03
2023-01-21T11:12:10.849Z,1.08
2023-01-21T11:13:10.821Z,1.14
2023-01-21T11:14:10.822Z,1.08
2023-01-21T11:15:10.785Z,1.08
2023-01-21T11:16:10.811Z,1.16
2023-01-21T11:17:10.791Z,1.16
2023-01-21T11:18:10.745Z,1.15
2023-01-21T11:19:10.727Z,1.18
2023-01-21T11:20:10.720Z,1.18
2023-01-21T11:21:10.696Z,1.21
2023-01-21T11:22:10.725Z,1.15
2023-01-21T11:23:10.685Z,1.18
2023-01-21T11:24:10.666Z,1.22
2023-01-21T11:25:10.638Z,1.22
2023-01-21T11:26:10.638Z,1.24
2023-01-21T11:27:10.628Z,1.29
2023-01-21T11:28:10.607Z,1.28
2023-01-21T11:29:10.594Z,1.28
2023-01-21T11:30:29.676Z,1.24
2023-01-21T11:31:11.644Z,1.32
2023-01-21T11:32:10.710Z,1.32
2023-01-21T11:33:10.554Z,1.34
2023-01-21T11:34:10.527Z,1.36
2023-01-21T11:35:10.831Z,1.39
2023-01-21T11:36:10.518Z,1.42
2023-01-21T11:37:10.506Z,1.40
2023-01-21T11:38:10.479Z,1.42
2023-01-21T11:39:10.467Z,1.43
2023-01-21T11:40:10.467Z,1.42
2023-01-21T11:41:11.158Z,1.44
2023-01-21T11:42:10.464Z,1.50
2023-01-21T11:43:10.405Z,1.47
2023-01-21T11:44:10.408Z,1.60
2023-01-21T11:45:10.399Z,1.64
2023-01-21T11:46:10.410Z,1.71
2023-01-21T11:47:10.388Z,1.68
2023-01-21T11:48:10.366Z,1.71
2023-01-21T11:49:10.356Z,1.69
2023-01-21T11:50:10.329Z,1.71
2023-01-21T11:51:10.351Z,1.75
2023-01-21T11:52:10.295Z,1.76
2023-01-21T11:53:10.315Z,1.65
2023-01-21T11:54:10.269Z,1.72
2023-01-21T11:55:10.268Z,1.80
2023-01-21T11:56:10.246Z,1.85
2023-01-21T11:57:10.240Z,1.91
2023-01-21T11:58:10.228Z,1.93
2023-01-21T11:59:10.218Z,1.91
2023-01-21T12:00:10.197Z,2.02
2023-01-21T12:01:10.175Z,2.09
2023-01-21T12:02:10.178Z,2.17
2023-01-21T12:03:10.190Z,2.23
2023-01-21T12:04:10.248Z,2.23
2023-01-21T12:05:10.130Z,2.20
2023-01-21T12:06:10.109Z,2.26
2023-01-21T12:07:10.091Z,2.27
2023-01-21T12:08:10.100Z,2.28
2023-01-21T12:09:10.068Z,2.28
2023-01-21T12:10:10.064Z,2.27
2023-01-21T12:11:10.041Z,2.23
2023-01-21T12:12:10.029Z,2.26
2023-01-21T12:13:10.035Z,2.30
2023-01-21T12:14:10.006Z,2.35
2023-01-21T12:15:10.014Z,2.31
2023-01-21T12:16:10.046Z,2.34
2023-01-21T12:17:09.955Z,2.37
2023-01-21T12:18:09.957Z,2.45
2023-01-21T12:19:09.947Z,2.41
2023-01-21T12:20:09.918Z,2.38
2023-01-21T12:21:09.918Z,2.34
2023-01-21T12:22:09.900Z,2.41
2023-01-21T12:23:09.912Z,2.37
2023-01-21T12:24:09.870Z,2.35
2023-01-21T12:25:09.857Z,2.34
2023-01-21T12:26:09.841Z,2.37
2023-01-21T12:27:09.865Z,2.40
2023-01-21T12:28:09.828Z,2.46
2023-01-21T12:29:09.891Z,2.44
2023-01-21T12:30:09.814Z,2.44
2023-01-21T12:31:09.865Z,2.46
2023-01-21T12:32:09.758Z,2.48
2023-01-21T12:33:09.771Z,2.48
2023-01-21T12:34:09.737Z,2.49
2023-01-21T12:35:09.749Z,2.51
2023-01-21T12:36:09.711Z,2.55
2023-01-21T12:37:09.712Z,2.53
2023-01-21T12:38:09.696Z,2.51
2023-01-21T12:39:09.669Z,2.48
2023-01-21T12:40:09.669Z,2.41
2023-01-21T12:41:09.669Z,2.37
2023-01-21T12:42:09.654Z,2.31
2023-01-21T12:43:09.660Z,2.28
2023-01-21T12:44:09.603Z,2.34
2023-01-21T12:45:09.608Z,2.37
2023-01-21T12:46:09.593Z,2.41
2023-01-21T12:47:09.566Z,2.37
2023-01-21T12:48:09.591Z,2.37
2023-01-21T12:49:09.567Z,2.33
2023-01-21T12:50:09.587Z,2.28
2023-01-21T12:51:09.555Z,2.28
2023-01-21T12:52:09.504Z,2.27
2023-01-21T12:53:09.513Z,2.28
2023-01-21T12:54:09.479Z,2.28
2023-01-21T12:55:09.473Z,2.33
2023-01-21T12:56:09.445Z,2.33
2023-01-21T12:57:09.444Z,2.34
2023-01-21T12:58:09.441Z,2.34
2023-01-21T12:59:09.408Z,2.37
2023-01-21T13:00:09.393Z,2.44